Dati Storici

Data ora Umidita' aria (%) Temperatura aria (°C) Rad globale (W/m²) Gonioanemometro (°) Tacoanemometro (m/s) Pioggia (mm)
13-10-2012 04:40 86 % 14.776 3.427 10.446 1.56 0
13-10-2012 04:30 85.5 % 14.903 3.401 26.205 0.98 0
13-10-2012 04:20 85.2 % 14.923 3.414 20.749 1.631 0
13-10-2012 04:10 84.6 % 14.995 3.273 336.643 1.015 0
13-10-2012 04:00 84.2 % 15.026 3.504 25.292 0.75 0
13-10-2012 03:50 83.4 % 15.205 3.722 33.157 1.516 0
13-10-2012 03:40 82.6 % 15.462 3.401 11.572 1.606 0
13-10-2012 03:30 82.4 % 15.356 3.145 345.416 0.585 0
13-10-2012 03:20 82.2 % 15.45 3.311 99.749 0.197 0
13-10-2012 03:10 82.2 % 15.476 3.388 18.014 0.412 0
13-10-2012 03:00 81.8 % 15.588 3.568 31.868 0.667 0
13-10-2012 02:50 81.5 % 15.624 3.356 5.063 0.179 0
13-10-2012 02:40 81.8 % 15.593 3.343 306.623 0.488 0
13-10-2012 02:30 81.9 % 15.511 3.343 357.345 0.405 0
13-10-2012 02:20 81.5 % 15.477 3.433 344.931 0.739 0
13-10-2012 02:10 81.2 % 15.646 3.523 54.84 1.375 0
13-10-2012 02:00 80.5 % 15.685 3.497 25.206 0.457 0
13-10-2012 01:50 79.7 % 15.823 3.676 31.34 1.563 0
13-10-2012 01:40 79.6 % 16.125 3.548 42.972 0.3 0
13-10-2012 01:30 79.4 % 16.225 3.331 341.688 0.84 0

I dati sono presentati in modo automatico a scopo informativo. In seguito a verifica i dati possono subire modifiche o essere invalidati e non riportati negli archivi definitivi.